Airfield :
LOGIN :

Register | Disclaimer

   EN    FR    IT 

 










Legend :    VFR   Marginal VFR   IFR   Intensive IFR   Very Intensive IFR
Visi :
Ceiling :
>= 8 km
>= 3000ft
5 to 8 km
1000 to 3000 ft
1500m to 5 km
500 to 1000 ft
800 to 1500m
200 to 500 ft
< 800m
< 200 ft
Symbols :   Thunderstorms  Fog  Heavy snow  Heavy precipitations  Wind > 20 kt
SIGMETs :     Misc.  Thunderstorms  Icing  Turbulence  Mountain Waves  Volcanic Ashes






- Airport Elevation : 796 ft
- IATA code : SYT


LFLN - Saint-Yan

CURRENT METAR :
  • 101500Z AUTO 00000KT CAVOK 06/M00 Q1025 NOSIG

EXPIRED METARs :
  • 101430Z AUTO 00000KT CAVOK 08/00 Q1025 NOSIG
  • 101400Z AUTO VRB02KT CAVOK 07/01 Q1026 NOSIG
  • 101330Z AUTO VRB02KT CAVOK 07/00 Q1027 NOSIG
  • 101300Z AUTO VRB02KT CAVOK 07/01 Q1027 NOSIG
  • 101230Z AUTO VRB01KT CAVOK 07/01 Q1027 NOSIG

TAF TAF LFLN
Valid from the 10 at 15:00 until the 11 at 00:00 UTC


101400Z 1015/1024 VRB03KT CAVOK
PROB40
TEMPO 1018/1024 4000 BR
PROB30
TEMPO 1019/1021 0500 BCFG BKN001



MET'MAP, your aeronautical weather chart ! - Copyright ORBIFLY December 2007 - Disclaimer

ORBIFLY MET'MAP TEAM :

Programming & Development : Alexandra Zaïnal
Concept & original design : Baudouin d'Aumeries
Assistance for programming : Marc-Olivier Méhu
Technical & hardware support : Manuel Goepfert

Contact : metmap@orbifly.com




SOURCES & CREDITS :

   NOAA